High Glow — 3EAV5 — position and weather

sailwx.info

Track history (hours):
 
Tides and Currents Weather Stations Pressure Air Temp Water Temp Dewpoint Dewpoint Depression Visibility Wind Speed Wind Dir Waves Ship Positions

High Glow

Last reported at 2018-Dec-17 19:59 UTC. Time now 2018-Dec-17 20:08 UTC.
Position N 51°53' E 004°22'.

Length 180 m; draft 11 m.

Type: Ship. MMSI: 371179000.

Date/timePositionNaut miles runAvg speedWind from/ knotsBaromVisibWave heightAir tempDewpointWater temp
2018-Dec-17 19:59N 51°53' E 004°22'0 0.0
2018-Dec-17 19:29N 51°53' E 004°22'0 0.0
2018-Dec-17 18:59N 51°53' E 004°22'0 0.0
2018-Dec-17 18:26N 51°53' E 004°22'0 0.0
2018-Dec-17 17:59N 51°53' E 004°22'0 0.0
2018-Dec-17 17:29N 51°53' E 004°22'0 0.0
2018-Dec-17 16:59N 51°53' E 004°22'0 0.0
2018-Dec-17 16:26N 51°53' E 004°22'0 0.0
2018-Dec-17 15:59N 51°53' E 004°22'0 0.0
2018-Dec-17 15:26N 51°53' E 004°22'0 0.0
2018-Dec-17 14:56N 51°53' E 004°22'0 0.0
2018-Dec-17 14:26N 51°53' E 004°22'0 0.0
2018-Dec-17 13:59N 51°53' E 004°22'0 0.0
2018-Dec-17 13:29N 51°53' E 004°22'0 0.0
2018-Dec-17 12:59N 51°53' E 004°22'0 0.0
2018-Dec-17 12:29N 51°53' E 004°22'0 0.0
2018-Dec-17 12:00N 51°53' E 004°22'0 0.6
2018-Dec-17 11:30N 51°53' E 004°22'0 0.9
2018-Dec-17 11:01N 51°54' E 004°22'3 5.4
2018-Dec-17 10:31N 51°54' E 004°17'4 8.5
2018-Dec-17 10:01N 51°56' E 004°12'5 9.7
2018-Dec-17 09:31N 51°59' E 004°05'5 9.7
2018-Dec-17 09:01N 52°00' E 003°58'2 3.9
2018-Dec-17 08:31N 52°01' E 003°55'4 7.6
2018-Dec-17 08:01N 52°01' E 003°48'4 7.7
2018-Dec-17 07:31N 51°59' E 003°43'4 7.8
2018-Dec-17 07:00N 51°58' E 003°37'4 8.7
2018-Dec-17 06:30N 51°57' E 003°30'611.3
2018-Dec-17 06:00N 51°55' E 003°21'711.1
2018-Dec-17 05:24N 51°53' E 003°11'27 8.1
2018-Dec-17 02:04N 51°42' E 002°31'1 6.3
2018-Dec-17 01:58N 51°42' E 002°30'4 7.1
2018-Dec-17 01:21N 51°38' E 002°25'3 6.9
2018-Dec-17 00:57N 51°36' E 002°22'3 7.4
2018-Dec-17 00:29N 51°34' E 002°19'3 7.1
2018-Dec-17 00:00N 51°31' E 002°15'4 8.6
2018-Dec-16 23:31N 51°28' E 002°10'3 6.9
2018-Dec-16 23:01N 51°25' E 002°08'510.1
2018-Dec-16 22:31N 51°20' E 002°08'510.8
2018-Dec-16 22:00N 51°14' E 002°07'611.8
2018-Dec-16 21:31N 51°11' E 001°59'612.0
2018-Dec-16 21:01N 51°09' E 001°50'612.6
2018-Dec-16 20:30N 51°05' E 001°42'713.2
2018-Dec-16 20:01N 51°00' E 001°34'713.7
2018-Dec-16 19:31N 50°55' E 001°28'713.9
2018-Dec-16 19:01N 50°48' E 001°25'912.7
2018-Dec-16 18:16N 50°40' E 001°18'412.7
2018-Dec-16 17:59N 50°38' E 001°13'912.5
2018-Dec-16 17:18N 50°32' E 001°03'4512.6
2018-Dec-16 13:45N 50°18' W 000°04'813.8
2018-Dec-16 13:10N 50°15' W 000°15'413.7
2018-Dec-16 12:52N 50°13' W 000°21'511.7
2018-Dec-16 12:28N 50°12' W 000°28'4 7.5
2018-Dec-16 12:00N 50°13' W 000°33'713.2
2018-Dec-16 11:29N 50°11' W 000°43'713.5
2018-Dec-16 11:00N 50°10' W 000°53'713.2
2018-Dec-16 10:31N 50°09' W 001°03'612.8
2018-Dec-16 10:00N 50°07' W 001°13'612.6
2018-Dec-16 09:30N 50°05' W 001°22'612.3
2018-Dec-16 09:00N 50°03' W 001°31'612.1
2018-Dec-16 08:30N 50°01' W 001°40'611.9
2018-Dec-16 08:01N 49°60' W 001°49'611.7
2018-Dec-16 07:30N 49°58' W 001°58'611.7
2018-Dec-16 07:00N 49°57' W 002°07'612.1
2018-Dec-16 06:30N 49°55' W 002°16'  
Track history (hours):
 
Tides and Currents Weather Stations Pressure Air Temp Water Temp Dewpoint Dewpoint Depression Visibility Wind Speed Wind Dir Waves Ship Positions

High Glow

Last reported at 2018-Dec-17 19:59 UTC. Time now 2018-Dec-17 20:08 UTC.
Position N 51°53' E 004°22'.

Length 180 m; draft 11 m.

Type: Ship. MMSI: 371179000.

Date/timePositionNaut miles runAvg speedWind from/ knotsBaromVisibWave heightAir tempDewpointWater temp
2018-Dec-17 19:59N 51°53' E 004°22'0 0.0
2018-Dec-17 19:29N 51°53' E 004°22'0 0.0
2018-Dec-17 18:59N 51°53' E 004°22'0 0.0
2018-Dec-17 18:26N 51°53' E 004°22'0 0.0
2018-Dec-17 17:59N 51°53' E 004°22'0 0.0
2018-Dec-17 17:29N 51°53' E 004°22'0 0.0
2018-Dec-17 16:59N 51°53' E 004°22'0 0.0
2018-Dec-17 16:26N 51°53' E 004°22'0 0.0
2018-Dec-17 15:59N 51°53' E 004°22'0 0.0
2018-Dec-17 15:26N 51°53' E 004°22'0 0.0
2018-Dec-17 14:56N 51°53' E 004°22'0 0.0
2018-Dec-17 14:26N 51°53' E 004°22'0 0.0
2018-Dec-17 13:59N 51°53' E 004°22'0 0.0
2018-Dec-17 13:29N 51°53' E 004°22'0 0.0
2018-Dec-17 12:59N 51°53' E 004°22'0 0.0
2018-Dec-17 12:29N 51°53' E 004°22'0 0.0
2018-Dec-17 12:00N 51°53' E 004°22'0 0.6
2018-Dec-17 11:30N 51°53' E 004°22'0 0.9
2018-Dec-17 11:01N 51°54' E 004°22'3 5.4
2018-Dec-17 10:31N 51°54' E 004°17'4 8.5
2018-Dec-17 10:01N 51°56' E 004°12'5 9.7
2018-Dec-17 09:31N 51°59' E 004°05'5 9.7
2018-Dec-17 09:01N 52°00' E 003°58'2 3.9
2018-Dec-17 08:31N 52°01' E 003°55'4 7.6
2018-Dec-17 08:01N 52°01' E 003°48'4 7.7
2018-Dec-17 07:31N 51°59' E 003°43'4 7.8
2018-Dec-17 07:00N 51°58' E 003°37'4 8.7
2018-Dec-17 06:30N 51°57' E 003°30'611.3
2018-Dec-17 06:00N 51°55' E 003°21'711.1
2018-Dec-17 05:24N 51°53' E 003°11'27 8.1
2018-Dec-17 02:04N 51°42' E 002°31'1 6.3
2018-Dec-17 01:58N 51°42' E 002°30'4 7.1
2018-Dec-17 01:21N 51°38' E 002°25'3 6.9
2018-Dec-17 00:57N 51°36' E 002°22'3 7.4
2018-Dec-17 00:29N 51°34' E 002°19'3 7.1
2018-Dec-17 00:00N 51°31' E 002°15'4 8.6
2018-Dec-16 23:31N 51°28' E 002°10'3 6.9
2018-Dec-16 23:01N 51°25' E 002°08'510.1
2018-Dec-16 22:31N 51°20' E 002°08'510.8
2018-Dec-16 22:00N 51°14' E 002°07'611.8
2018-Dec-16 21:31N 51°11' E 001°59'612.0
2018-Dec-16 21:01N 51°09' E 001°50'612.6
2018-Dec-16 20:30N 51°05' E 001°42'713.2
2018-Dec-16 20:01N 51°00' E 001°34'713.7
2018-Dec-16 19:31N 50°55' E 001°28'713.9
2018-Dec-16 19:01N 50°48' E 001°25'912.7
2018-Dec-16 18:16N 50°40' E 001°18'412.7
2018-Dec-16 17:59N 50°38' E 001°13'912.5
2018-Dec-16 17:18N 50°32' E 001°03'4512.6
2018-Dec-16 13:45N 50°18' W 000°04'813.8
2018-Dec-16 13:10N 50°15' W 000°15'413.7
2018-Dec-16 12:52N 50°13' W 000°21'511.7
2018-Dec-16 12:28N 50°12' W 000°28'4 7.5
2018-Dec-16 12:00N 50°13' W 000°33'713.2
2018-Dec-16 11:29N 50°11' W 000°43'713.5
2018-Dec-16 11:00N 50°10' W 000°53'713.2
2018-Dec-16 10:31N 50°09' W 001°03'612.8
2018-Dec-16 10:00N 50°07' W 001°13'612.6
2018-Dec-16 09:30N 50°05' W 001°22'612.3
2018-Dec-16 09:00N 50°03' W 001°31'612.1
2018-Dec-16 08:30N 50°01' W 001°40'611.9
2018-Dec-16 08:01N 49°60' W 001°49'611.7
2018-Dec-16 07:30N 49°58' W 001°58'611.7
2018-Dec-16 07:00N 49°57' W 002°07'612.1
2018-Dec-16 06:30N 49°55' W 002°16'  

Dump ship's entire track history